EGPE/INV METAR and TAF weather

Enter ICAO airport designator
Station Type Date Time Source
EGPE METAR 2022/11/30 16:20 UTC NOAA

EGPE 301620Z 00000KT 9999 MIFG FEW040 02/01 Q1022


Station Type Date Time Source
EGPE Decoded METAR 2022/11/30 16:20 UTC NOAA

Inverness / Dalcross, United Kingdom (EGPE) 57-32N 004-03W 0M
Nov 30, 2022 - 11:20 AM EST / 2022.11.30 1620 UTC
Wind: Calm:0
Visibility: greater than 7 mile(s):0
Sky conditions: mostly clear
Weather: shallow fog
Temperature: 35 F (2 C)
Dew Point: 33 F (1 C)
Relative Humidity: 93%
Pressure (altimeter): 30.18 in. Hg (1022 hPa)
ob: EGPE 301620Z 00000KT 9999 MIFG FEW040 02/01 Q1022
cycle: 16

Station Type Date Time Source
EGPE TAF UTC NOAA

Error!

Example: see airport list